Time;durP1;ratioP1;P1;durP2;ratioP2;P2;SDS_P1;SDS_P2;PMS_P1;PMS_P2;Temp;Humidity;BMP_temperature;BMP_pressure;BME280_temperature;BME280_humidity;BME280_pressure;Samples;Min_cycle;Max_cycle;Signal;HPM_P1;HPM_P2
2022/06/12 00:00:53;;;;;;;0.40;0.40;;;15.60;1.00;;;;;;5057030;28;20587;-77
2022/06/12 00:03:21;;;;;;;0.40;0.40;;;15.60;1.00;;;;;;5075120;28;20607;-76
2022/06/12 00:05:50;;;;;;;0.30;0.30;;;15.60;1.00;;;;;;5075088;28;20178;-76
2022/06/12 00:08:17;;;;;;;0.30;0.30;;;15.50;1.00;;;;;;5068060;28;20623;-75
2022/06/12 00:10:45;;;;;;;0.30;0.30;;;15.50;1.00;;;;;;5070181;28;20224;-76
2022/06/12 00:13:14;;;;;;;0.30;0.30;;;15.50;1.00;;;;;;5072063;28;20194;-75
2022/06/12 00:15:40;;;;;;;0.30;0.30;;;15.50;1.00;;;;;;5071930;28;20178;-76
2022/06/12 00:18:06;;;;;;;0.40;0.40;;;15.50;1.00;;;;;;5071924;28;20559;-76
2022/06/12 00:20:31;;;;;;;0.33;0.33;;;15.40;1.00;;;;;;5071579;28;20607;-76
2022/06/12 00:22:58;;;;;;;0.37;0.37;;;15.40;1.00;;;;;;5071617;28;20210;-76
2022/06/12 00:25:28;;;;;;;0.40;0.40;;;15.40;1.00;;;;;;5072442;28;20263;-76
2022/06/12 00:27:53;;;;;;;0.30;0.30;;;15.30;20.70;;;;;;5071931;28;20199;-76
2022/06/12 00:30:22;;;;;;;0.40;0.40;;;15.30;35.40;;;;;;5071638;28;20178;-77
2022/06/12 00:32:52;;;;;;;0.40;0.40;;;15.20;34.00;;;;;;5070913;28;20198;-76
2022/06/12 00:35:20;;;;;;;0.40;0.40;;;15.10;6.30;;;;;;5072016;28;20185;-76
2022/06/12 00:37:45;;;;;;;0.30;0.30;;;15.10;1.00;;;;;;5072366;28;20177;-76
2022/06/12 00:40:12;;;;;;;0.30;0.30;;;15.10;11.10;;;;;;5072017;28;20178;-76
2022/06/12 00:42:46;;;;;;;0.43;0.43;;;15.10;8.10;;;;;;5071787;28;20328;-76
2022/06/12 00:45:42;;;;;;;0.30;0.30;;;15.00;2.90;;;;;;5071783;28;20604;-76
2022/06/12 00:48:17;;;;;;;0.30;0.30;;;14.90;10.00;;;;;;5072056;28;20170;-75
2022/06/12 00:50:51;;;;;;;0.30;0.30;;;14.90;20.10;;;;;;5070985;28;20174;-76
2022/06/12 00:53:23;;;;;;;0.30;0.30;;;14.80;23.60;;;;;;5071540;28;20185;-76
2022/06/12 00:55:58;;;;;;;0.30;0.30;;;14.80;28.60;;;;;;5071513;28;20206;-76
2022/06/12 00:58:26;;;;;;;0.40;0.40;;;14.80;11.20;;;;;;5071176;28;20275;-76
2022/06/12 01:00:52;;;;;;;0.37;0.37;;;14.70;11.50;;;;;;5069100;28;20312;-76
2022/06/12 01:03:20;;;;;;;0.37;0.37;;;14.60;22.00;;;;;;5071254;28;20285;-76
2022/06/12 01:08:40;;;;;;;0.30;0.30;;;14.60;99.90;;;;;;5055582;28;20562;-76
2022/06/12 01:11:10;;;;;;;0.30;0.30;;;14.60;99.90;;;;;;5070770;28;21023;-76
2022/06/12 01:13:41;;;;;;;0.47;0.47;;;14.60;99.90;;;;;;5071717;28;20193;-76
2022/06/12 01:16:14;;;;;;;0.40;0.40;;;14.60;99.90;;;;;;5071353;28;20186;-76
2022/06/12 01:18:45;;;;;;;0.37;0.37;;;14.60;99.90;;;;;;5071394;28;20181;-75
2022/06/12 01:21:31;;;;;;;0.40;0.40;;;14.50;94.20;;;;;;5070733;28;20190;-76
2022/06/12 01:24:15;;;;;;;0.40;0.40;;;14.50;90.90;;;;;;5071516;28;20316;-76
2022/06/12 01:27:05;;;;;;;0.30;0.30;;;14.50;93.70;;;;;;5071573;28;20257;-76
2022/06/12 01:29:43;;;;;;;0.30;0.30;;;14.50;92.80;;;;;;5070665;28;20249;-76
2022/06/12 01:32:35;;;;;;;0.40;0.40;;;14.40;75.60;;;;;;5071239;28;20198;-75
2022/06/12 01:35:19;;;;;;;0.43;0.43;;;14.40;76.90;;;;;;5059690;28;20189;-76
2022/06/12 01:37:49;;;;;;;0.30;0.30;;;14.40;73.40;;;;;;5071796;28;20212;-76
2022/06/12 01:40:25;;;;;;;0.37;0.37;;;14.40;94.80;;;;;;5070599;28;20789;-76
2022/06/12 01:43:13;;;;;;;0.30;0.30;;;14.40;86.00;;;;;;5070819;28;20210;-76
2022/06/12 01:46:00;;;;;;;0.33;0.33;;;14.30;93.00;;;;;;5072722;28;20561;-76
2022/06/12 01:48:30;;;;;;;0.33;0.33;;;14.30;99.90;;;;;;5075697;28;20174;-76
2022/06/12 01:51:26;;;;;;;0.40;0.40;;;14.30;99.90;;;;;;5075201;28;20167;-77
2022/06/12 01:54:12;;;;;;;0.30;0.30;;;14.30;97.30;;;;;;5075997;28;20171;-77
2022/06/12 01:56:59;;;;;;;0.30;0.30;;;14.20;99.90;;;;;;5075274;28;20205;-77
2022/06/12 01:59:42;;;;;;;0.37;0.37;;;14.10;99.90;;;;;;5074614;28;20573;-77
2022/06/12 02:02:25;;;;;;;0.30;0.30;;;14.00;99.90;;;;;;5075346;28;20201;-77
2022/06/12 02:05:11;;;;;;;0.30;0.30;;;14.00;99.90;;;;;;5074962;28;20178;-76
2022/06/12 02:07:45;;;;;;;0.40;0.40;;;14.00;99.90;;;;;;5075742;28;20178;-76
2022/06/12 02:10:20;;;;;;;0.43;0.43;;;14.00;99.90;;;;;;5073904;28;20648;-75
2022/06/12 02:13:13;;;;;;;0.40;0.40;;;14.00;99.90;;;;;;5074497;28;20280;-75
2022/06/12 02:15:51;;;;;;;0.30;0.30;;;14.00;99.90;;;;;;5074602;28;20200;-75
2022/06/12 02:18:30;;;;;;;0.33;0.33;;;14.00;90.00;;;;;;5074489;28;20178;-75
2022/06/12 02:21:06;;;;;;;0.47;0.47;;;13.90;90.10;;;;;;5073337;28;20316;-76
2022/06/12 02:23:43;;;;;;;0.43;0.43;;;13.90;70.00;;;;;;5073858;28;20210;-75
2022/06/12 02:26:14;;;;;;;0.40;0.40;;;13.90;89.20;;;;;;5073568;28;20180;-75
2022/06/12 02:28:44;;;;;;;0.30;0.30;;;13.90;99.90;;;;;;5073844;28;20683;-75
2022/06/12 02:31:15;;;;;;;0.40;0.40;;;13.90;99.90;;;;;;5073331;28;20251;-75
2022/06/12 02:33:45;;;;;;;0.40;0.40;;;13.90;97.80;;;;;;5074230;28;20612;-76
2022/06/12 02:36:18;;;;;;;0.40;0.40;;;13.90;99.90;;;;;;5073716;28;20178;-75
2022/06/12 02:38:46;;;;;;;0.40;0.40;;;13.90;99.90;;;;;;5072132;28;20171;-75
2022/06/12 02:41:22;;;;;;;0.50;0.50;;;13.80;99.90;;;;;;5073425;28;20197;-76
2022/06/12 02:43:50;;;;;;;0.33;0.33;;;13.80;99.90;;;;;;5073712;28;20531;-75
2022/06/12 02:46:23;;;;;;;0.40;0.40;;;13.80;99.90;;;;;;5073873;28;20178;-76
2022/06/12 02:48:49;;;;;;;0.40;0.40;;;13.80;99.90;;;;;;5073863;28;20183;-76
2022/06/12 02:51:25;;;;;;;0.40;0.40;;;13.70;90.10;;;;;;5073506;28;20240;-76
2022/06/12 02:54:05;;;;;;;0.30;0.30;;;13.70;78.30;;;;;;5073945;28;20726;-76
2022/06/12 02:56:50;;;;;;;0.40;0.40;;;13.70;52.80;;;;;;5073650;28;20174;-76
2022/06/12 02:59:42;;;;;;;0.40;0.40;;;13.70;59.50;;;;;;5073113;28;20190;-76
2022/06/12 03:02:27;;;;;;;0.33;0.33;;;13.60;93.60;;;;;;5073734;28;20247;-76
2022/06/12 03:04:59;;;;;;;0.40;0.40;;;13.60;97.70;;;;;;5073575;28;20475;-76
2022/06/12 03:07:25;;;;;;;0.37;0.37;;;13.60;95.10;;;;;;5073354;28;20166;-76
2022/06/12 03:09:50;;;;;;;0.40;0.40;;;13.60;86.50;;;;;;5073347;28;20170;-76
2022/06/12 03:12:16;;;;;;;0.50;0.50;;;13.60;93.10;;;;;;5073330;28;20281;-76
2022/06/12 03:14:42;;;;;;;0.40;0.40;;;13.60;99.90;;;;;;5073503;28;20209;-76
2022/06/12 03:17:08;;;;;;;0.40;0.40;;;13.60;95.60;;;;;;5073389;28;20182;-76
2022/06/12 03:19:46;;;;;;;0.40;0.40;;;13.60;99.90;;;;;;5072675;28;20179;-76
2022/06/12 03:22:40;;;;;;;0.40;0.40;;;13.60;99.90;;;;;;5072988;28;20190;-76
2022/06/12 03:25:23;;;;;;;0.30;0.30;;;13.60;99.90;;;;;;5073381;28;20262;-76
2022/06/12 03:27:58;;;;;;;0.40;0.40;;;13.60;99.90;;;;;;5072975;28;20232;-77
2022/06/12 03:30:32;;;;;;;0.40;0.40;;;13.60;99.90;;;;;;5072488;28;20181;-75
2022/06/12 03:33:02;;;;;;;0.40;0.40;;;13.60;99.90;;;;;;5072994;28;20229;-76
2022/06/12 03:35:55;;;;;;;0.40;0.40;;;13.50;99.90;;;;;;5072998;28;20166;-75
2022/06/12 03:38:29;;;;;;;0.40;0.40;;;13.50;99.90;;;;;;5068483;28;20196;-76
2022/06/12 03:41:11;;;;;;;0.40;0.40;;;13.50;99.90;;;;;;5072431;28;20183;-76
2022/06/12 03:43:49;;;;;;;0.40;0.40;;;13.50;99.90;;;;;;5072501;28;20655;-76
2022/06/12 03:46:20;;;;;;;0.30;0.30;;;13.50;99.90;;;;;;5072890;28;20181;-76
2022/06/12 03:49:14;;;;;;;0.40;0.40;;;13.50;99.90;;;;;;5072553;28;20362;-76
2022/06/12 03:51:50;;;;;;;0.43;0.43;;;13.50;99.90;;;;;;5072816;28;20527;-75
2022/06/12 03:54:33;;;;;;;0.40;0.40;;;13.60;99.90;;;;;;5072772;28;20201;-76
2022/06/12 04:00:16;;;;;;;0.40;0.40;;;13.70;99.90;;;;;;5072497;28;20278;-75
2022/06/12 04:02:43;;;;;;;0.40;0.40;;;13.70;99.90;;;;;;5072146;28;20594;-76
2022/06/12 04:05:14;;;;;;;0.40;0.40;;;13.70;99.90;;;;;;5072008;28;20178;-75
2022/06/12 04:07:46;;;;;;;0.30;0.30;;;13.80;99.90;;;;;;5071504;28;20228;-76
2022/06/12 04:10:17;;;;;;;0.40;0.40;;;13.80;99.90;;;;;;5071636;28;20644;-76
2022/06/12 04:12:44;;;;;;;0.40;0.40;;;13.90;99.90;;;;;;5071669;28;20578;-76
2022/06/12 04:15:29;;;;;;;0.40;0.40;;;13.90;99.90;;;;;;5072049;28;20186;-76
2022/06/12 04:17:56;;;;;;;0.50;0.50;;;14.00;99.90;;;;;;5071706;28;20677;-76
2022/06/12 04:20:27;;;;;;;0.30;0.30;;;14.10;99.90;;;;;;5071007;28;20604;-76
2022/06/12 04:23:11;;;;;;;0.40;0.40;;;14.20;99.90;;;;;;5071582;28;20241;-76
2022/06/12 04:25:51;;;;;;;0.30;0.30;;;14.20;99.90;;;;;;5071712;28;20178;-76
2022/06/12 04:28:39;;;;;;;0.40;0.40;;;14.40;99.90;;;;;;5071893;28;20204;-76
2022/06/12 04:31:18;;;;;;;0.43;0.43;;;14.50;99.90;;;;;;5071247;28;20249;-76
2022/06/12 04:34:01;;;;;;;0.43;0.43;;;14.60;99.90;;;;;;5071665;28;20254;-75
2022/06/12 04:36:27;;;;;;;0.40;0.40;;;14.70;99.90;;;;;;5071830;28;20170;-75
2022/06/12 04:38:53;;;;;;;0.30;0.30;;;14.80;99.90;;;;;;5071139;28;20647;-75
2022/06/12 04:41:22;;;;;;;0.30;0.30;;;15.00;99.90;;;;;;5071216;28;20194;-76
2022/06/12 04:43:48;;;;;;;0.40;0.40;;;15.10;99.90;;;;;;5070962;28;20252;-76
2022/06/12 04:46:13;;;;;;;0.30;0.30;;;15.20;99.90;;;;;;5071747;28;20209;-76
2022/06/12 04:48:41;;;;;;;0.30;0.30;;;15.30;99.90;;;;;;5068156;28;20217;-75
2022/06/12 04:51:09;;;;;;;0.30;0.30;;;15.30;99.90;;;;;;5069410;28;20183;-76
2022/06/12 04:53:35;;;;;;;0.50;0.50;;;15.30;99.90;;;;;;5071430;28;20548;-76
2022/06/12 04:56:01;;;;;;;0.30;0.30;;;15.50;95.40;;;;;;5071539;28;20166;-76
2022/06/12 04:58:27;;;;;;;0.40;0.40;;;15.70;80.00;;;;;;5071406;28;20195;-76
2022/06/12 05:00:53;;;;;;;0.43;0.43;;;15.80;47.50;;;;;;5070719;28;20170;-76
2022/06/12 05:03:19;;;;;;;0.30;0.30;;;15.90;33.20;;;;;;5071159;28;20214;-76
2022/06/12 05:05:44;;;;;;;0.30;0.30;;;16.00;13.30;;;;;;5071193;28;20182;-75
2022/06/12 05:08:11;;;;;;;0.40;0.40;;;15.90;12.10;;;;;;5071159;28;20182;-75
2022/06/12 05:10:37;;;;;;;0.40;0.40;;;16.10;7.30;;;;;;5070549;28;20181;-75
2022/06/12 05:13:03;;;;;;;0.30;0.30;;;16.20;1.00;;;;;;5071329;28;20289;-75
2022/06/12 05:15:29;;;;;;;0.33;0.33;;;16.50;1.00;;;;;;5071195;28;20221;-76
2022/06/12 05:17:55;;;;;;;0.40;0.40;;;16.70;1.00;;;;;;5071311;28;20282;-75
2022/06/12 05:20:24;;;;;;;0.30;0.30;;;16.90;1.00;;;;;;5069477;28;20185;-76
2022/06/12 05:22:49;;;;;;;0.37;0.37;;;17.00;1.00;;;;;;5070745;28;20248;-75
2022/06/12 05:25:17;;;;;;;0.40;0.40;;;17.20;1.00;;;;;;5071459;28;20170;-75
2022/06/12 05:27:45;;;;;;;0.33;0.33;;;17.20;1.00;;;;;;5071638;28;20174;-75
2022/06/12 05:30:14;;;;;;;0.30;0.30;;;17.20;1.00;;;;;;5070765;28;20740;-75
2022/06/12 05:32:40;;;;;;;0.40;0.40;;;17.20;1.00;;;;;;5071646;28;20202;-75
2022/06/12 05:35:07;;;;;;;0.30;0.30;;;17.10;1.00;;;;;;5071623;28;20174;-76
2022/06/12 05:37:33;;;;;;;0.40;0.40;;;17.10;1.00;;;;;;5071693;28;20185;-76
2022/06/12 05:39:58;;;;;;;0.30;0.30;;;17.00;1.00;;;;;;5071461;28;20178;-75
2022/06/12 05:42:24;;;;;;;0.30;0.30;;;17.10;1.00;;;;;;5071462;28;20202;-77
2022/06/12 05:44:49;;;;;;;0.40;0.40;;;17.30;1.00;;;;;;5071463;28;20178;-76
2022/06/12 05:47:15;;;;;;;0.30;0.30;;;17.20;1.00;;;;;;5071404;28;20589;-75
2022/06/12 05:49:41;;;;;;;0.40;0.40;;;17.30;1.00;;;;;;5070599;28;20733;-76
2022/06/12 05:52:07;;;;;;;0.40;0.40;;;17.30;1.00;;;;;;5070699;28;20201;-76
2022/06/12 05:54:33;;;;;;;0.40;0.40;;;17.30;1.00;;;;;;5071176;28;20174;-77
2022/06/12 05:56:58;;;;;;;0.37;0.37;;;17.40;1.00;;;;;;5070902;28;20324;-76
2022/06/12 05:59:24;;;;;;;0.40;0.40;;;17.40;1.00;;;;;;5069971;28;20236;-76
2022/06/12 06:01:50;;;;;;;0.37;0.37;;;17.60;1.00;;;;;;5071248;28;20202;-75
2022/06/12 06:04:16;;;;;;;0.40;0.40;;;17.60;1.00;;;;;;5070976;28;20206;-76
2022/06/12 06:06:46;;;;;;;0.30;0.30;;;17.60;1.00;;;;;;5071018;28;20181;-76
2022/06/12 06:09:12;;;;;;;0.40;0.40;;;17.70;1.00;;;;;;5070545;28;20217;-77
2022/06/12 06:11:39;;;;;;;0.50;0.50;;;18.00;1.00;;;;;;5071047;28;20219;-77
2022/06/12 06:14:06;;;;;;;0.40;0.40;;;18.00;1.00;;;;;;5070920;28;20261;-77
2022/06/12 06:16:33;;;;;;;0.30;0.30;;;18.10;1.00;;;;;;5071577;28;20171;-77
2022/06/12 06:18:59;;;;;;;0.40;0.40;;;18.30;1.00;;;;;;5071143;28;20178;-76
2022/06/12 06:21:24;;;;;;;0.30;0.30;;;18.30;1.00;;;;;;5064952;28;20613;-76
2022/06/12 06:23:50;;;;;;;0.30;0.30;;;18.40;1.00;;;;;;5071107;28;20210;-77
2022/06/12 06:26:16;;;;;;;0.37;0.37;;;18.70;1.00;;;;;;5069202;28;20202;-76
2022/06/12 06:28:42;;;;;;;0.37;0.37;;;18.70;1.00;;;;;;5063941;28;20236;-76
2022/06/12 06:31:09;;;;;;;0.40;0.40;;;18.90;1.00;;;;;;5068806;28;20174;-77
2022/06/12 06:33:35;;;;;;;0.40;0.40;;;19.10;99.90;;;;;;5061092;28;20253;-76
2022/06/12 06:36:00;;;;;;;0.30;0.30;;;19.20;90.10;;;;;;5065669;28;20574;-74
2022/06/12 06:38:26;;;;;;;0.40;0.40;;;19.20;99.90;;;;;;5059631;28;20687;-74
2022/06/12 06:40:51;;;;;;;0.40;0.40;;;19.10;99.90;;;;;;5058429;28;20209;-74
2022/06/12 06:43:17;;;;;;;0.30;0.30;;;19.20;99.90;;;;;;5053732;28;20234;-73
2022/06/12 06:48:27;;;;;;;0.30;0.30;;;19.50;99.90;;;;;;5065688;28;20214;-74
2022/06/12 06:50:54;;;;;;;0.30;0.30;;;19.70;99.90;;;;;;5068420;28;20163;-73
2022/06/12 06:53:20;;;;;;;0.30;0.30;;;19.80;90.10;;;;;;5067140;28;20182;-74
2022/06/12 06:55:47;;;;;;;0.37;0.37;;;19.80;1.00;;;;;;5058570;28;20551;-74
2022/06/12 06:58:16;;;;;;;0.30;0.30;;;19.90;1.00;;;;;;5062512;28;20430;-73
2022/06/12 07:00:43;;;;;;;0.30;0.30;;;20.10;99.90;;;;;;5064285;28;20255;-74
2022/06/12 07:03:10;;;;;;;0.30;0.30;;;20.40;1.00;;;;;;5070183;28;20251;-73
2022/06/12 07:05:36;;;;;;;0.30;0.30;;;20.50;1.00;;;;;;5062710;28;20178;-74
2022/06/12 07:08:03;;;;;;;0.30;0.30;;;20.60;1.00;;;;;;5063867;28;20592;-74
2022/06/12 07:10:32;;;;;;;0.30;0.30;;;20.70;1.00;;;;;;5061477;28;20179;-74
2022/06/12 07:12:58;;;;;;;0.30;0.30;;;20.60;99.90;;;;;;5062382;28;20671;-74
2022/06/12 07:15:25;;;;;;;0.30;0.30;;;20.90;1.00;;;;;;5063662;28;20623;-73
2022/06/12 07:17:51;;;;;;;0.30;0.30;;;21.10;1.00;;;;;;5061221;28;20257;-73
2022/06/12 07:20:20;;;;;;;0.30;0.30;;;21.30;1.00;;;;;;5057300;28;20257;-73
2022/06/12 07:22:46;;;;;;;0.40;0.40;;;21.60;1.00;;;;;;5059374;28;20662;-73
2022/06/12 07:25:12;;;;;;;0.40;0.40;;;21.70;99.90;;;;;;5062160;28;20183;-74
2022/06/12 07:27:39;;;;;;;0.30;0.30;;;21.90;99.90;;;;;;5052826;28;20175;-75
2022/06/12 07:30:10;;;;;;;0.30;0.30;;;22.00;1.00;;;;;;5066292;28;20191;-74
2022/06/12 07:32:36;;;;;;;0.30;0.30;;;22.20;99.90;;;;;;5070351;28;20281;-74
2022/06/12 07:35:03;;;;;;;0.30;0.30;;;22.40;1.00;;;;;;5069871;28;20618;-74
2022/06/12 07:37:29;;;;;;;0.30;0.30;;;22.60;99.90;;;;;;5053764;28;20187;-74
2022/06/12 07:39:55;;;;;;;0.30;0.30;;;22.90;99.90;;;;;;5064299;28;20181;-73
2022/06/12 07:42:20;;;;;;;0.37;0.37;;;23.10;81.80;;;;;;5066760;28;20251;-74
2022/06/12 07:44:46;;;;;;;0.30;0.30;;;23.30;99.90;;;;;;5066660;28;20183;-74
2022/06/12 07:47:12;;;;;;;0.40;0.40;;;23.80;99.90;;;;;;5060795;28;20187;-72
2022/06/12 07:49:37;;;;;;;0.40;0.40;;;24.30;1.00;;;;;;5062763;28;20175;-73
2022/06/12 07:52:06;;;;;;;0.20;0.20;;;24.60;1.00;;;;;;5056415;28;20199;-74
2022/06/12 07:54:33;;;;;;;0.40;0.40;;;24.60;1.00;;;;;;5069590;28;20324;-72
2022/06/12 07:56:59;;;;;;;0.40;0.40;;;24.50;1.00;;;;;;5072494;28;20183;-73
2022/06/12 07:59:26;;;;;;;0.30;0.30;;;24.60;1.00;;;;;;5071764;28;20191;-74
2022/06/12 08:01:52;;;;;;;0.30;0.30;;;25.10;1.00;;;;;;5072581;28;20194;-74
2022/06/12 08:04:20;;;;;;;0.40;0.40;;;25.70;1.00;;;;;;5072388;28;20387;-73
2022/06/12 08:06:46;;;;;;;0.30;0.30;;;26.00;1.00;;;;;;5072268;28;20257;-73
2022/06/12 08:09:12;;;;;;;0.40;0.40;;;25.90;1.00;;;;;;5071831;28;20179;-73
2022/06/12 08:11:40;;;;;;;0.40;0.40;;;26.00;1.00;;;;;;5072017;28;20190;-75
2022/06/12 08:14:06;;;;;;;0.47;0.47;;;26.20;1.00;;;;;;5072127;28;20632;-74
2022/06/12 08:16:33;;;;;;;0.40;0.40;;;26.70;1.00;;;;;;5069581;28;20272;-75
2022/06/12 08:18:59;;;;;;;0.50;0.50;;;27.20;1.00;;;;;;5071424;28;20175;-75
2022/06/12 08:21:25;;;;;;;0.30;0.30;;;27.70;1.00;;;;;;5062148;28;20675;-74
2022/06/12 08:23:55;;;;;;;0.30;0.30;;;28.00;1.00;;;;;;5065236;28;20286;-73
2022/06/12 08:26:26;;;;;;;0.33;0.33;;;28.20;1.00;;;;;;5060163;28;20167;-73
2022/06/12 08:28:56;;;;;;;0.50;0.50;;;27.90;1.00;;;;;;5051184;28;20209;-74
2022/06/12 08:31:26;;;;;;;0.43;0.43;;;27.70;1.00;;;;;;5051529;28;20620;-74
2022/06/12 08:33:56;;;;;;;0.30;0.30;;;27.90;1.00;;;;;;5056322;28;20629;-74
2022/06/12 08:36:22;;;;;;;0.40;0.40;;;28.10;1.00;;;;;;5054587;28;20189;-74
2022/06/12 08:38:49;;;;;;;0.43;0.43;;;28.20;1.00;;;;;;5070479;28;20178;-74
2022/06/12 08:41:17;;;;;;;0.50;0.50;;;28.10;1.00;;;;;;5071123;28;20216;-74
2022/06/12 08:43:55;;;;;;;0.50;0.50;;;28.20;1.00;;;;;;5071669;28;20218;-74
2022/06/12 08:46:41;;;;;;;0.40;0.40;;;28.30;1.00;;;;;;5071578;28;20174;-74
2022/06/12 08:49:30;;;;;;;0.50;0.50;;;28.30;1.00;;;;;;5060513;28;20259;-75
2022/06/12 08:52:23;;;;;;;0.40;0.40;;;28.50;1.00;;;;;;5063395;28;20670;-75
2022/06/12 08:55:06;;;;;;;0.50;0.50;;;28.90;1.00;;;;;;5067907;28;20178;-74
2022/06/12 08:58:02;;;;;;;0.50;0.50;;;29.30;1.00;;;;;;5071235;28;20185;-74
2022/06/12 09:00:33;;;;;;;0.60;0.60;;;29.80;1.00;;;;;;5070312;28;20220;-74
2022/06/12 09:02:59;;;;;;;0.50;0.50;;;30.10;1.00;;;;;;5063755;28;20293;-74
2022/06/12 09:05:44;;;;;;;0.50;0.50;;;30.40;1.00;;;;;;5071367;28;20189;-74
2022/06/12 09:08:15;;;;;;;0.50;0.50;;;30.70;1.00;;;;;;5071641;28;20175;-74
2022/06/12 09:10:45;;;;;;;0.70;0.70;;;30.90;1.00;;;;;;5071007;28;20174;-74
2022/06/12 09:13:41;;;;;;;0.50;0.50;;;31.10;1.00;;;;;;5071307;28;20285;-74
2022/06/12 09:16:40;;;;;;;0.50;0.50;;;31.10;1.00;;;;;;5071153;28;20174;-76
2022/06/12 09:19:34;;;;;;;0.63;0.63;;;31.20;1.00;;;;;;5070566;28;20266;-75
2022/06/12 09:22:22;;;;;;;0.60;0.60;;;30.90;1.00;;;;;;5070998;28;20190;-75
2022/06/12 09:24:51;;;;;;;0.70;0.70;;;31.20;1.00;;;;;;5071186;28;20221;-76
2022/06/12 09:27:28;;;;;;;0.60;0.60;;;31.50;1.00;;;;;;5071201;28;20175;-76
2022/06/12 09:30:19;;;;;;;0.60;0.60;;;31.70;1.00;;;;;;5070477;28;20175;-76
2022/06/12 09:33:18;;;;;;;0.50;0.50;;;31.90;1.00;;;;;;5071341;28;20194;-76
2022/06/12 09:35:52;;;;;;;0.47;0.47;;;31.60;1.00;;;;;;5071250;28;20212;-75
2022/06/12 09:38:53;;;;;;;0.53;0.53;;;31.20;1.00;;;;;;5070999;28;20178;-75
2022/06/12 09:41:44;;;;;;;0.53;0.53;;;31.10;1.00;;;;;;5070907;28;20206;-76
2022/06/12 09:44:16;;;;;;;0.50;0.50;;;31.20;1.00;;;;;;5071259;28;20222;-76
2022/06/12 09:47:03;;;;;;;0.50;0.50;;;31.50;1.00;;;;;;5071074;28;20167;-76
2022/06/12 09:49:49;;;;;;;0.57;0.57;;;31.80;1.00;;;;;;5070586;28;20232;-76
2022/06/12 09:52:33;;;;;;;0.60;0.60;;;32.20;1.00;;;;;;5071341;28;20198;-76
2022/06/12 09:55:24;;;;;;;0.50;0.50;;;32.50;1.00;;;;;;5070981;28;20597;-76
2022/06/12 09:58:10;;;;;;;0.60;0.60;;;32.70;1.00;;;;;;5070989;28;20190;-76
2022/06/12 10:00:45;;;;;;;0.60;0.60;;;32.90;1.00;;;;;;5090994;22;20329;-80
2022/06/12 10:03:25;;;;;;;0.60;0.60;;;32.50;1.00;;;;;;5050498;28;20221;-83
2022/06/12 10:06:00;;;;;;;0.50;0.50;;;32.50;1.00;;;;;;5053572;28;20183;-83
2022/06/12 10:08:34;;;;;;;0.60;0.60;;;32.30;1.00;;;;;;5053066;28;20179;-83
2022/06/12 10:11:22;;;;;;;0.20;0.20;;;32.50;1.00;;;;;;5055933;28;20518;-83
2022/06/12 10:14:08;;;;;;;0.50;0.50;;;32.50;1.00;;;;;;5056921;28;20520;-83
2022/06/12 10:16:56;;;;;;;0.50;0.50;;;32.60;1.00;;;;;;5063264;28;20181;-84
2022/06/12 10:19:33;;;;;;;0.60;0.60;;;32.30;1.00;;;;;;5065426;28;20550;-82
2022/06/12 10:22:03;;;;;;;0.50;0.50;;;32.00;1.00;;;;;;5061485;28;20190;-82
2022/06/12 10:24:29;;;;;;;0.60;0.60;;;32.00;1.00;;;;;;5072660;28;20214;-84
2022/06/12 10:27:08;;;;;;;0.43;0.43;;;31.60;1.00;;;;;;5073151;28;20551;-83
2022/06/12 10:30:03;;;;;;;0.40;0.40;;;31.70;1.00;;;;;;5064082;28;20262;-83
2022/06/12 10:32:48;;;;;;;0.50;0.50;;;31.80;1.00;;;;;;5076538;28;20202;-82
2022/06/12 10:35:16;;;;;;;0.60;0.60;;;31.90;1.00;;;;;;5078665;28;20558;-81
2022/06/12 10:37:41;;;;;;;0.60;0.60;;;32.20;1.00;;;;;;5079008;28;20647;-81
2022/06/12 10:40:18;;;;;;;0.60;0.60;;;32.40;1.00;;;;;;5082140;28;20178;-81
2022/06/12 10:43:05;;;;;;;0.53;0.53;;;32.30;1.00;;;;;;5079175;28;20536;-80
2022/06/12 10:45:36;;;;;;;0.50;0.50;;;32.20;1.00;;;;;;5077200;28;20619;-81
2022/06/12 10:48:24;;;;;;;0.60;0.60;;;32.40;1.00;;;;;;5070973;28;20189;-81
2022/06/12 10:50:56;;;;;;;0.60;0.60;;;32.70;1.00;;;;;;5052475;28;20248;-82
2022/06/12 10:53:25;;;;;;;0.68;0.68;;;32.70;1.00;;;;;;5069602;28;20194;-81
2022/06/12 10:56:05;;;;;;;0.60;0.60;;;32.50;1.00;;;;;;5076307;28;20546;-80
2022/06/12 10:58:37;;;;;;;0.52;0.52;;;32.50;1.00;;;;;;5078117;28;20315;-81
2022/06/12 11:01:28;;;;;;;0.50;0.50;;;32.90;1.00;;;;;;5079498;28;20252;-82
2022/06/12 11:04:40;;;;;;;0.50;0.50;;;33.10;1.00;;;;;;5079299;28;20695;-82
2022/06/12 11:07:18;;;;;;;0.50;0.50;;;33.50;1.00;;;;;;5062514;28;20182;-82
2022/06/12 11:10:05;;;;;;;0.50;0.50;;;33.50;1.00;;;;;;5058283;28;20256;-81
2022/06/12 11:12:51;;;;;;;0.60;0.60;;;33.60;1.00;;;;;;5057651;28;20207;-81
2022/06/12 11:15:51;;;;;;;0.55;0.55;;;33.40;1.00;;;;;;5057602;28;20175;-81
2022/06/12 11:18:34;;;;;;;0.50;0.50;;;33.50;1.00;;;;;;5066675;28;20179;-81
2022/06/12 11:21:21;;;;;;;0.30;0.30;;;33.60;1.00;;;;;;5074822;28;20171;-83
2022/06/12 11:24:08;;;;;;;0.30;0.30;;;33.70;1.00;;;;;;5077522;28;20276;-82
2022/06/12 11:26:53;;;;;;;0.40;0.40;;;33.20;1.00;;;;;;5077054;28;20159;-82
2022/06/12 11:29:37;;;;;;;0.30;0.30;;;32.80;1.00;;;;;;5076345;28;20226;-83
2022/06/12 11:32:20;;;;;;;0.20;0.20;;;33.00;1.00;;;;;;5076354;28;20225;-82
2022/06/12 11:34:54;;;;;;;0.35;0.35;;;33.40;1.00;;;;;;5075601;28;20171;-82
2022/06/12 11:37:25;;;;;;;0.45;0.45;;;33.90;1.00;;;;;;5072971;28;20179;-82
2022/06/12 11:40:06;;;;;;;0.45;0.45;;;33.80;1.00;;;;;;5072024;28;20185;-82
2022/06/12 11:42:58;;;;;;;0.45;0.45;;;33.60;1.00;;;;;;5072988;28;20203;-81
2022/06/12 11:45:37;;;;;;;0.40;0.40;;;33.80;1.00;;;;;;5075138;28;20186;-82
2022/06/12 11:48:20;;;;;;;0.22;0.22;;;33.90;1.00;;;;;;5070765;28;20178;-83
2022/06/12 11:50:57;;;;;;;0.57;0.57;;;33.00;1.00;;;;;;5062521;28;20175;-81
2022/06/12 11:53:37;;;;;;;0.52;0.52;;;32.50;1.00;;;;;;5061094;28;20179;-83
2022/06/12 11:56:50;;;;;;;0.40;0.40;;;32.30;1.00;;;;;;5058753;28;20294;-82
2022/06/12 11:59:46;;;;;;;0.47;0.47;;;32.80;1.00;;;;;;5043317;28;20256;-81
2022/06/12 12:02:20;;;;;;;0.47;0.47;;;33.10;1.00;;;;;;5060686;28;20572;-82
2022/06/12 12:05:23;;;;;;;0.50;0.50;;;33.40;1.00;;;;;;5059313;28;20301;-83
2022/06/12 12:08:12;;;;;;;0.63;0.63;;;33.50;1.00;;;;;;5059444;28;20175;-81
2022/06/12 12:10:38;;;;;;;0.43;0.43;;;33.80;1.00;;;;;;5058802;28;20335;-82
2022/06/12 12:13:10;;;;;;;0.30;0.30;;;34.00;1.00;;;;;;5059130;28;20230;-81
2022/06/12 12:15:58;;;;;;;0.30;0.30;;;34.20;1.00;;;;;;5058465;28;20172;-82
2022/06/12 12:18:43;;;;;;;0.30;0.30;;;34.20;1.00;;;;;;5057675;28;20172;-82
2022/06/12 12:21:22;;;;;;;0.28;0.28;;;34.30;1.00;;;;;;5058056;28;20171;-81
2022/06/12 12:23:49;;;;;;;0.30;0.30;;;34.20;1.00;;;;;;5057680;28;20211;-82
2022/06/12 12:26:24;;;;;;;0.22;0.22;;;34.00;1.00;;;;;;5057144;28;20170;-81
2022/06/12 12:28:54;;;;;;;0.60;0.60;;;34.10;1.00;;;;;;5056979;28;20652;-81
2022/06/12 12:31:21;;;;;;;0.20;0.20;;;33.90;1.00;;;;;;5057235;28;20721;-81
2022/06/12 12:33:47;;;;;;;0.30;0.30;;;33.70;1.00;;;;;;5057421;28;20179;-81
2022/06/12 12:41:54;;;;;;;0.43;0.43;;;33.10;1.00;;;;;;5057010;28;20316;-80
2022/06/12 12:44:39;;;;;;;0.35;0.35;;;33.00;1.00;;;;;;5039337;28;20234;-80
2022/06/12 12:47:25;;;;;;;0.38;0.38;;;33.00;1.00;;;;;;5056958;28;20181;-80
2022/06/12 12:50:08;;;;;;;0.30;0.30;;;33.40;1.00;;;;;;5057309;28;20183;-81
2022/06/12 12:52:53;;;;;;;0.45;0.45;;;33.60;1.00;;;;;;5056687;28;20198;-81
2022/06/12 12:55:26;;;;;;;0.45;0.45;;;33.90;1.00;;;;;;5059380;28;20520;-80
2022/06/12 12:57:53;;;;;;;0.50;0.50;;;33.90;1.00;;;;;;5057026;28;20178;-80
2022/06/12 13:00:18;;;;;;;0.32;0.32;;;33.60;1.00;;;;;;5056308;28;20195;-81
2022/06/12 13:02:56;;;;;;;0.40;0.40;;;33.70;1.00;;;;;;5056498;28;20218;-80
2022/06/12 13:05:47;;;;;;;0.30;0.30;;;34.00;1.00;;;;;;5056196;28;20683;-82
2022/06/12 13:08:38;;;;;;;0.35;0.35;;;34.00;1.00;;;;;;5027162;28;20244;-81
2022/06/12 13:11:22;;;;;;;0.40;0.40;;;33.40;1.00;;;;;;5055268;28;20171;-81
2022/06/12 13:14:08;;;;;;;0.50;0.50;;;32.60;1.00;;;;;;5056265;28;20589;-81
2022/06/12 13:16:46;;;;;;;0.30;0.30;;;32.00;1.00;;;;;;5055897;28;20175;-81
2022/06/12 13:19:35;;;;;;;0.60;0.60;;;31.20;1.00;;;;;;5054915;28;20221;-81
2022/06/12 13:22:22;;;;;;;0.50;0.50;;;30.70;1.00;;;;;;5054413;28;20634;-81
2022/06/12 13:24:57;;;;;;;0.53;0.53;;;30.60;1.00;;;;;;5054435;28;20249;-81
2022/06/12 13:27:24;;;;;;;0.60;0.60;;;30.90;1.00;;;;;;5054616;28;20251;-82
2022/06/12 13:29:52;;;;;;;0.40;0.40;;;31.10;1.00;;;;;;5054060;28;20718;-81
2022/06/12 13:32:28;;;;;;;0.50;0.50;;;31.20;1.00;;;;;;5054719;28;20550;-82
2022/06/12 13:35:03;;;;;;;0.60;0.60;;;31.30;1.00;;;;;;5056997;28;20651;-84
2022/06/12 13:37:37;;;;;;;0.50;0.50;;;31.00;1.00;;;;;;5055857;28;20675;-80
2022/06/12 13:40:21;;;;;;;0.60;0.60;;;30.70;1.00;;;;;;5054234;28;20224;-81
2022/06/12 13:42:47;;;;;;;0.50;0.50;;;30.50;1.00;;;;;;5058599;28;20659;-81
2022/06/12 13:45:21;;;;;;;0.60;0.60;;;30.40;1.00;;;;;;5058974;28;20198;-82